Time;durP1;ratioP1;P1;durP2;ratioP2;P2;SDS_P1;SDS_P2;PMS_P1;PMS_P2;Temp;Humidity;BMP_temperature;BMP_pressure;BME280_temperature;BME280_humidity;BME280_pressure;Samples;Min_cycle;Max_cycle;Signal;HPM_P1;HPM_P2
2021/04/07 00:01:26;;;;;;;3.30;2.10;;;;;;;;;;5020651;28;20190;-48
2021/04/07 00:03:52;;;;;;;3.77;2.17;;;;;;;;;;5011050;28;20206;-48
2021/04/07 00:06:17;;;;;;;4.23;2.20;;;;;;;;;;5025041;28;20206;-50
2021/04/07 00:08:47;;;;;;;6.13;2.10;;;;;;;;;;5018297;28;20264;-49
2021/04/07 00:11:13;;;;;;;5.33;2.40;;;;;;;;;;5019027;28;20218;-49
2021/04/07 00:13:38;;;;;;;6.50;2.30;;;;;;;;;;5020710;28;20777;-48
2021/04/07 00:16:04;;;;;;;4.87;1.97;;;;;;;;;;5032217;28;20186;-49
2021/04/07 00:18:29;;;;;;;4.57;2.00;;;;;;;;;;5021628;28;20221;-51
2021/04/07 00:20:54;;;;;;;7.80;2.53;;;;;;;;;;5016798;28;20974;-49
2021/04/07 00:23:19;;;;;;;4.90;2.30;;;;;;;;;;5014344;28;20213;-50
2021/04/07 00:25:45;;;;;;;7.33;2.27;;;;;;;;;;5021957;28;20225;-51
2021/04/07 00:28:11;;;;;;;9.33;2.77;;;;;;;;;;5020535;28;20274;-48
2021/04/07 00:30:38;;;;;;;4.70;1.70;;;;;;;;;;5015675;28;20206;-49
2021/04/07 00:33:03;;;;;;;6.37;1.80;;;;;;;;;;5016754;28;20653;-49
2021/04/07 00:35:29;;;;;;;4.57;1.93;;;;;;;;;;5015352;28;20187;-50
2021/04/07 00:37:54;;;;;;;6.37;2.23;;;;;;;;;;5018971;28;20624;-48
2021/04/07 00:40:20;;;;;;;6.90;2.07;;;;;;;;;;5017037;28;20221;-50
2021/04/07 00:42:50;;;;;;;6.47;1.90;;;;;;;;;;5012814;28;20205;-50
2021/04/07 00:45:16;;;;;;;8.27;2.03;;;;;;;;;;5022278;28;20293;-48
2021/04/07 00:47:42;;;;;;;5.07;2.10;;;;;;;;;;5018564;28;20302;-48
2021/04/07 00:50:08;;;;;;;4.17;2.20;;;;;;;;;;5022269;28;20186;-48
2021/04/07 00:52:34;;;;;;;5.03;2.10;;;;;;;;;;5013838;28;20225;-48
2021/04/07 00:55:01;;;;;;;7.50;2.30;;;;;;;;;;5018472;28;20570;-48
2021/04/07 00:57:27;;;;;;;9.83;2.10;;;;;;;;;;5020874;28;20178;-49
2021/04/07 00:59:53;;;;;;;6.50;2.40;;;;;;;;;;5021157;28;20197;-49
2021/04/07 01:02:19;;;;;;;6.93;2.60;;;;;;;;;;5009722;28;20194;-50
2021/04/07 01:04:46;;;;;;;7.10;2.10;;;;;;;;;;5011631;28;20199;-48
2021/04/07 01:07:12;;;;;;;10.60;2.73;;;;;;;;;;5014231;28;20206;-48
2021/04/07 01:09:41;;;;;;;7.10;2.73;;;;;;;;;;5017839;28;20607;-48
2021/04/07 01:12:07;;;;;;;9.47;2.23;;;;;;;;;;5013872;28;20204;-49
2021/04/07 01:14:33;;;;;;;8.57;2.60;;;;;;;;;;5013393;28;20220;-50
2021/04/07 01:17:00;;;;;;;8.13;2.10;;;;;;;;;;5016603;28;20218;-50
2021/04/07 01:19:26;;;;;;;6.83;2.30;;;;;;;;;;5013541;28;20302;-48
2021/04/07 01:21:53;;;;;;;7.03;2.17;;;;;;;;;;5018756;28;20269;-49
2021/04/07 01:24:20;;;;;;;5.90;2.30;;;;;;;;;;5017294;28;20225;-49
2021/04/07 01:26:46;;;;;;;5.17;2.13;;;;;;;;;;5020149;28;20225;-49
2021/04/07 01:29:11;;;;;;;10.07;3.47;;;;;;;;;;5021563;28;20285;-49
2021/04/07 01:31:48;;;;;;;5.50;2.73;;;;;;;;;;5052485;28;20284;-48
2021/04/07 01:34:26;;;;;;;5.57;2.30;;;;;;;;;;5009750;28;20587;-50
2021/04/07 01:36:52;;;;;;;8.97;2.70;;;;;;;;;;5021892;28;20224;-51
2021/04/07 01:39:19;;;;;;;7.80;2.37;;;;;;;;;;5018066;28;20634;-49
2021/04/07 01:41:45;;;;;;;5.07;2.40;;;;;;;;;;5011947;28;20633;-52
2021/04/07 01:44:13;;;;;;;8.20;2.60;;;;;;;;;;5008662;28;20227;-49
2021/04/07 01:46:39;;;;;;;8.00;2.60;;;;;;;;;;5019344;28;20226;-49
2021/04/07 01:49:07;;;;;;;7.10;2.33;;;;;;;;;;5010632;28;20192;-50
2021/04/07 01:51:32;;;;;;;7.50;2.17;;;;;;;;;;5015486;28;20190;-49
2021/04/07 01:54:02;;;;;;;9.37;3.13;;;;;;;;;;5012434;28;20211;-51
2021/04/07 01:56:27;;;;;;;6.53;2.60;;;;;;;;;;5013436;28;20196;-51
2021/04/07 01:59:05;;;;;;;6.23;2.73;;;;;;;;;;5013282;28;20542;-49
2021/04/07 02:01:31;;;;;;;8.47;3.03;;;;;;;;;;5034315;23;20273;-47
2021/04/07 02:03:56;;;;;;;8.50;2.27;;;;;;;;;;5020694;28;20198;-48
2021/04/07 02:06:22;;;;;;;8.37;2.27;;;;;;;;;;5019235;28;20868;-48
2021/04/07 02:08:47;;;;;;;9.23;2.40;;;;;;;;;;5019637;28;20293;-47
2021/04/07 02:11:14;;;;;;;7.07;2.47;;;;;;;;;;5017115;28;20298;-48
2021/04/07 02:13:39;;;;;;;4.40;2.30;;;;;;;;;;5025285;28;20229;-49
2021/04/07 02:16:14;;;;;;;6.80;2.03;;;;;;;;;;5018309;28;20734;-48
2021/04/07 02:18:41;;;;;;;6.20;2.33;;;;;;;;;;5041897;28;20198;-50
2021/04/07 02:21:07;;;;;;;6.53;2.27;;;;;;;;;;5021588;28;20614;-45
2021/04/07 02:23:33;;;;;;;6.07;2.10;;;;;;;;;;5023458;28;20282;-50
2021/04/07 02:25:59;;;;;;;10.23;3.10;;;;;;;;;;5015473;28;20225;-49
2021/04/07 02:28:25;;;;;;;10.80;2.20;;;;;;;;;;5026515;28;20240;-48
2021/04/07 02:30:50;;;;;;;7.90;2.23;;;;;;;;;;5023549;28;20195;-46
2021/04/07 02:33:16;;;;;;;7.83;2.57;;;;;;;;;;5022419;28;20187;-49
2021/04/07 02:35:41;;;;;;;7.13;3.03;;;;;;;;;;5021217;28;20191;-48
2021/04/07 02:38:08;;;;;;;8.37;2.57;;;;;;;;;;5027600;28;20183;-47
2021/04/07 02:40:34;;;;;;;8.77;2.63;;;;;;;;;;5020236;28;20305;-47
2021/04/07 02:42:59;;;;;;;8.77;2.40;;;;;;;;;;5017241;28;20285;-47
2021/04/07 02:45:24;;;;;;;7.20;2.83;;;;;;;;;;5021745;28;20190;-49
2021/04/07 02:47:49;;;;;;;5.80;2.33;;;;;;;;;;5026283;28;20229;-48
2021/04/07 02:50:15;;;;;;;8.00;2.40;;;;;;;;;;5019444;28;20206;-50
2021/04/07 02:52:40;;;;;;;11.87;3.37;;;;;;;;;;5021843;28;20256;-48
2021/04/07 02:55:06;;;;;;;8.40;2.70;;;;;;;;;;5021876;28;20198;-48
2021/04/07 02:57:31;;;;;;;7.73;3.23;;;;;;;;;;5026535;28;20268;-48
2021/04/07 02:59:56;;;;;;;7.23;2.57;;;;;;;;;;5017901;28;20207;-48
2021/04/07 03:02:21;;;;;;;9.07;2.67;;;;;;;;;;5020902;28;20590;-49
2021/04/07 03:04:47;;;;;;;7.07;3.10;;;;;;;;;;5021593;28;20194;-47
2021/04/07 03:07:12;;;;;;;5.97;2.87;;;;;;;;;;5018113;28;20215;-47
2021/04/07 03:09:37;;;;;;;6.63;3.00;;;;;;;;;;5019520;28;20286;-50
2021/04/07 03:12:03;;;;;;;5.70;2.40;;;;;;;;;;5021403;28;20695;-47
2021/04/07 03:14:28;;;;;;;7.03;2.70;;;;;;;;;;5017812;28;20202;-48
2021/04/07 03:16:53;;;;;;;7.93;3.30;;;;;;;;;;5035798;28;20191;-48
2021/04/07 03:19:19;;;;;;;5.27;3.00;;;;;;;;;;5020404;28;20283;-48
2021/04/07 03:21:44;;;;;;;11.00;3.20;;;;;;;;;;5020391;28;20214;-48
2021/04/07 03:24:09;;;;;;;12.13;3.70;;;;;;;;;;5021553;28;20203;-49
2021/04/07 03:26:34;;;;;;;9.97;3.70;;;;;;;;;;5024935;28;20218;-48
2021/04/07 03:29:00;;;;;;;10.80;3.37;;;;;;;;;;5018525;28;20207;-53
2021/04/07 03:31:25;;;;;;;7.63;2.90;;;;;;;;;;5022358;28;20248;-47
2021/04/07 03:33:50;;;;;;;12.20;3.20;;;;;;;;;;5014182;28;20203;-47
2021/04/07 03:36:16;;;;;;;8.90;3.00;;;;;;;;;;5025235;28;20248;-48
2021/04/07 03:38:41;;;;;;;8.30;3.30;;;;;;;;;;5018146;28;20199;-49
2021/04/07 03:41:06;;;;;;;15.57;2.80;;;;;;;;;;5023729;28;20246;-50
2021/04/07 03:43:31;;;;;;;10.33;2.90;;;;;;;;;;5016523;28;20563;-48
2021/04/07 03:45:58;;;;;;;8.17;2.80;;;;;;;;;;5023944;28;20217;-48
2021/04/07 03:48:29;;;;;;;8.03;2.77;;;;;;;;;;5020125;28;20285;-49
2021/04/07 03:50:56;;;;;;;9.30;2.53;;;;;;;;;;5022262;28;20225;-48
2021/04/07 03:53:22;;;;;;;8.13;2.77;;;;;;;;;;5020448;28;20385;-48
2021/04/07 03:55:52;;;;;;;9.10;3.00;;;;;;;;;;5022598;28;20328;-46
2021/04/07 03:58:18;;;;;;;3.50;1.87;;;;;;;;;;5022630;28;20186;-52
2021/04/07 04:00:44;;;;;;;8.50;2.20;;;;;;;;;;5021224;28;20198;-48
2021/04/07 04:03:09;;;;;;;9.97;2.50;;;;;;;;;;5020119;28;20234;-50
2021/04/07 04:05:35;;;;;;;6.47;2.70;;;;;;;;;;5023459;28;20187;-50
2021/04/07 04:08:01;;;;;;;6.80;2.77;;;;;;;;;;5016271;28;20242;-48
2021/04/07 04:10:26;;;;;;;7.93;3.17;;;;;;;;;;5014118;28;20598;-48
2021/04/07 04:12:52;;;;;;;11.33;3.23;;;;;;;;;;5018970;28;20211;-48
2021/04/07 04:15:17;;;;;;;9.23;2.77;;;;;;;;;;5016508;28;20202;-48
2021/04/07 04:17:43;;;;;;;12.90;3.63;;;;;;;;;;5020752;28;20541;-50
2021/04/07 04:20:11;;;;;;;4.93;2.30;;;;;;;;;;5020354;28;20646;-48
2021/04/07 04:22:37;;;;;;;12.00;3.60;;;;;;;;;;5021815;28;20218;-48
2021/04/07 04:25:03;;;;;;;8.20;3.07;;;;;;;;;;5015964;28;20183;-49
2021/04/07 04:27:29;;;;;;;7.73;3.13;;;;;;;;;;5021859;28;20214;-48
2021/04/07 04:29:54;;;;;;;11.00;3.23;;;;;;;;;;5017458;28;20233;-50
2021/04/07 04:32:20;;;;;;;9.30;3.20;;;;;;;;;;5018360;28;20995;-51
2021/04/07 04:34:45;;;;;;;9.57;2.73;;;;;;;;;;5023146;28;20284;-47
2021/04/07 04:37:10;;;;;;;7.93;2.80;;;;;;;;;;5018912;28;20225;-50
2021/04/07 04:39:36;;;;;;;8.67;3.50;;;;;;;;;;5015864;28;20281;-50
2021/04/07 04:42:01;;;;;;;6.03;3.30;;;;;;;;;;5011819;28;20221;-47
2021/04/07 04:44:27;;;;;;;9.90;2.63;;;;;;;;;;5010945;28;20191;-50
2021/04/07 04:46:53;;;;;;;9.30;3.37;;;;;;;;;;5015070;28;20223;-47
2021/04/07 04:49:18;;;;;;;6.73;3.20;;;;;;;;;;5018681;28;20198;-48
2021/04/07 04:51:43;;;;;;;13.37;4.00;;;;;;;;;;5017659;28;20217;-50
2021/04/07 04:54:08;;;;;;;8.83;3.00;;;;;;;;;;5020276;28;20186;-49
2021/04/07 04:56:36;;;;;;;7.57;2.90;;;;;;;;;;5018391;28;20278;-47
2021/04/07 04:59:02;;;;;;;7.33;3.10;;;;;;;;;;5017360;28;20194;-51
2021/04/07 05:01:27;;;;;;;7.07;2.87;;;;;;;;;;5013976;28;20234;-48
2021/04/07 05:03:52;;;;;;;8.93;2.93;;;;;;;;;;5012603;28;20217;-48
2021/04/07 05:06:18;;;;;;;11.77;2.93;;;;;;;;;;5014471;28;20215;-49
2021/04/07 05:08:48;;;;;;;6.70;2.40;;;;;;;;;;5016426;28;20273;-47
2021/04/07 05:11:13;;;;;;;8.93;2.90;;;;;;;;;;5018266;28;20709;-47
2021/04/07 05:13:38;;;;;;;10.30;2.63;;;;;;;;;;5018634;28;20213;-49
2021/04/07 05:16:04;;;;;;;10.90;3.17;;;;;;;;;;5021730;28;20179;-49
2021/04/07 05:18:29;;;;;;;4.53;1.73;;;;;;;;;;5018551;28;20240;-48
2021/04/07 05:20:55;;;;;;;10.73;3.17;;;;;;;;;;5019607;28;20655;-49
2021/04/07 05:23:20;;;;;;;6.80;3.10;;;;;;;;;;5022463;28;20285;-49
2021/04/07 05:25:45;;;;;;;8.23;2.50;;;;;;;;;;5021358;28;20182;-49
2021/04/07 05:28:11;;;;;;;6.67;2.13;;;;;;;;;;5020936;28;20285;-48
2021/04/07 05:33:22;;;;;;;11.10;2.53;;;;;;;;;;5017202;28;20256;-48
2021/04/07 05:35:47;;;;;;;7.87;2.60;;;;;;;;;;5022916;28;20213;-48
2021/04/07 05:38:13;;;;;;;8.07;2.57;;;;;;;;;;5018166;28;20773;-49
2021/04/07 05:40:39;;;;;;;6.20;2.30;;;;;;;;;;5012599;28;20721;-48
2021/04/07 05:43:05;;;;;;;10.30;2.93;;;;;;;;;;5019334;28;20218;-49
2021/04/07 05:45:31;;;;;;;3.80;1.73;;;;;;;;;;5024914;28;20205;-47
2021/04/07 05:47:56;;;;;;;8.07;1.90;;;;;;;;;;5023291;28;20202;-49
2021/04/07 05:50:21;;;;;;;5.30;1.67;;;;;;;;;;5020899;28;20198;-49
2021/04/07 05:52:51;;;;;;;5.50;1.83;;;;;;;;;;5018289;28;20699;-50
2021/04/07 05:55:19;;;;;;;9.17;2.23;;;;;;;;;;5016958;28;20227;-49
2021/04/07 05:58:03;;;;;;;8.60;1.77;;;;;;;;;;5011477;28;20195;-48
2021/04/07 06:00:28;;;;;;;5.43;1.87;;;;;;;;;;5019531;28;20221;-48
2021/04/07 06:02:58;;;;;;;8.53;2.03;;;;;;;;;;5017331;28;20226;-50
2021/04/07 06:05:24;;;;;;;7.07;1.70;;;;;;;;;;5020459;28;20289;-53
2021/04/07 06:07:50;;;;;;;8.60;1.90;;;;;;;;;;5018880;28;20218;-51
2021/04/07 06:10:16;;;;;;;7.80;2.20;;;;;;;;;;5016803;28;20195;-49
2021/04/07 06:12:42;;;;;;;6.40;2.37;;;;;;;;;;5019325;28;20289;-49
2021/04/07 06:15:09;;;;;;;4.07;1.60;;;;;;;;;;5019460;28;20202;-48
2021/04/07 06:17:35;;;;;;;7.00;2.10;;;;;;;;;;5019008;28;20198;-48
2021/04/07 06:20:00;;;;;;;8.63;2.20;;;;;;;;;;5019735;28;20309;-48
2021/04/07 06:22:25;;;;;;;7.30;2.00;;;;;;;;;;5013944;28;20297;-49
2021/04/07 06:24:51;;;;;;;8.80;2.30;;;;;;;;;;5019182;28;20199;-49
2021/04/07 06:27:16;;;;;;;4.93;1.67;;;;;;;;;;5019032;28;20239;-48
2021/04/07 06:29:41;;;;;;;7.60;1.93;;;;;;;;;;5017215;28;20191;-51
2021/04/07 06:32:06;;;;;;;9.40;2.33;;;;;;;;;;5018351;28;20698;-50
2021/04/07 06:34:32;;;;;;;9.00;1.90;;;;;;;;;;5018385;28;20242;-48
2021/04/07 06:36:57;;;;;;;7.87;1.70;;;;;;;;;;5016781;28;20199;-50
2021/04/07 06:39:22;;;;;;;4.77;1.57;;;;;;;;;;5019983;28;20830;-48
2021/04/07 06:41:48;;;;;;;9.27;1.93;;;;;;;;;;5032961;28;20701;-48
2021/04/07 06:44:13;;;;;;;6.03;2.17;;;;;;;;;;5017625;28;20206;-53
2021/04/07 06:46:40;;;;;;;11.83;1.90;;;;;;;;;;5016675;28;20218;-50
2021/04/07 06:49:05;;;;;;;9.00;2.00;;;;;;;;;;5018173;28;20309;-50
2021/04/07 06:51:32;;;;;;;6.90;1.93;;;;;;;;;;5019071;28;20242;-49
2021/04/07 06:53:58;;;;;;;8.40;2.07;;;;;;;;;;5016590;28;20183;-49
2021/04/07 06:56:24;;;;;;;6.00;1.70;;;;;;;;;;5017571;28;20193;-49
2021/04/07 06:58:50;;;;;;;5.83;1.73;;;;;;;;;;5020396;28;20277;-47
2021/04/07 07:01:15;;;;;;;8.90;2.40;;;;;;;;;;5018566;28;20206;-48
2021/04/07 07:03:40;;;;;;;5.37;1.50;;;;;;;;;;5019232;28;20240;-49
2021/04/07 07:06:06;;;;;;;5.93;2.03;;;;;;;;;;5020586;28;20202;-48
2021/04/07 07:08:32;;;;;;;2.83;1.30;;;;;;;;;;5016162;28;20194;-49
2021/04/07 07:11:11;;;;;;;4.30;1.60;;;;;;;;;;5017554;28;20214;-49
2021/04/07 07:13:37;;;;;;;5.60;2.10;;;;;;;;;;5018326;28;20206;-49
2021/04/07 07:16:02;;;;;;;8.80;2.30;;;;;;;;;;5021194;28;20206;-48
2021/04/07 07:18:28;;;;;;;6.47;2.03;;;;;;;;;;5018266;28;20228;-50
2021/04/07 07:20:55;;;;;;;5.63;2.43;;;;;;;;;;5015684;28;20210;-50
2021/04/07 07:23:29;;;;;;;7.30;2.13;;;;;;;;;;5015564;28;21293;-51
2021/04/07 07:26:04;;;;;;;3.43;1.90;;;;;;;;;;5018065;28;20218;-49
2021/04/07 07:28:41;;;;;;;5.83;1.70;;;;;;;;;;5017316;28;20194;-48
2021/04/07 07:31:20;;;;;;;4.33;1.73;;;;;;;;;;5017020;28;20237;-46
2021/04/07 07:33:46;;;;;;;4.53;1.80;;;;;;;;;;5016733;28;20179;-49
2021/04/07 07:36:11;;;;;;;6.57;2.43;;;;;;;;;;5015394;28;20221;-49
2021/04/07 07:38:44;;;;;;;8.03;1.90;;;;;;;;;;5020097;28;20199;-49
2021/04/07 07:41:09;;;;;;;9.57;2.20;;;;;;;;;;5018742;28;20257;-51
2021/04/07 07:43:36;;;;;;;5.17;1.90;;;;;;;;;;5018439;28;20560;-47
2021/04/07 07:46:11;;;;;;;10.63;1.60;;;;;;;;;;5017137;28;20256;-48
2021/04/07 07:48:38;;;;;;;4.27;2.10;;;;;;;;;;5018317;28;20194;-50
2021/04/07 07:51:31;;;;;;;5.00;2.10;;;;;;;;;;5032503;28;20214;-50
2021/04/07 07:53:56;;;;;;;8.30;1.97;;;;;;;;;;5016284;28;20224;-48
2021/04/07 07:56:35;;;;;;;6.70;2.00;;;;;;;;;;5017987;28;20572;-46
2021/04/07 07:59:00;;;;;;;4.27;1.53;;;;;;;;;;5018564;28;20195;-47
2021/04/07 08:01:26;;;;;;;4.30;2.23;;;;;;;;;;5017619;28;20222;-48
2021/04/07 08:03:51;;;;;;;5.00;1.83;;;;;;;;;;5017622;28;20202;-51
2021/04/07 08:06:16;;;;;;;3.87;1.67;;;;;;;;;;5018219;28;20191;-47
2021/04/07 08:08:42;;;;;;;6.47;1.57;;;;;;;;;;5013684;28;20191;-47
2021/04/07 08:11:08;;;;;;;6.27;2.03;;;;;;;;;;5018256;28;20755;-50
2021/04/07 08:13:44;;;;;;;5.10;2.10;;;;;;;;;;5017025;28;20187;-47
2021/04/07 08:16:15;;;;;;;4.73;2.23;;;;;;;;;;5016210;28;20193;-47
2021/04/07 08:18:41;;;;;;;7.10;2.10;;;;;;;;;;5015773;28;20232;-50
2021/04/07 08:21:07;;;;;;;5.43;1.90;;;;;;;;;;5017170;28;20239;-48
2021/04/07 08:23:34;;;;;;;8.93;2.17;;;;;;;;;;5018385;28;20375;-48
2021/04/07 08:26:02;;;;;;;8.07;3.27;;;;;;;;;;5015617;28;20189;-47
2021/04/07 08:28:28;;;;;;;4.57;1.80;;;;;;;;;;5016636;28;20210;-48
2021/04/07 08:30:53;;;;;;;4.90;2.20;;;;;;;;;;5016392;28;20187;-47
2021/04/07 08:33:19;;;;;;;7.63;2.30;;;;;;;;;;5016802;28;20217;-49
2021/04/07 08:35:46;;;;;;;5.50;2.80;;;;;;;;;;5016257;28;20190;-48
2021/04/07 08:38:11;;;;;;;3.57;1.90;;;;;;;;;;5016395;28;20201;-48
2021/04/07 08:40:42;;;;;;;3.90;1.80;;;;;;;;;;5015193;28;20190;-47
2021/04/07 08:43:10;;;;;;;5.60;2.53;;;;;;;;;;5017585;28;20195;-49
2021/04/07 08:45:46;;;;;;;3.23;2.57;;;;;;;;;;5016905;28;20285;-48
2021/04/07 08:48:22;;;;;;;3.00;1.60;;;;;;;;;;5006263;28;20605;-45
2021/04/07 08:51:07;;;;;;;5.03;2.60;;;;;;;;;;5017478;28;20635;-48
2021/04/07 08:53:37;;;;;;;4.90;1.87;;;;;;;;;;5018211;28;20297;-47
2021/04/07 08:56:13;;;;;;;5.13;2.53;;;;;;;;;;5022265;28;20197;-49
2021/04/07 08:58:55;;;;;;;6.33;2.47;;;;;;;;;;5023850;28;20684;-49
2021/04/07 09:01:29;;;;;;;4.47;2.80;;;;;;;;;;5018058;28;20214;-49
2021/04/07 09:04:14;;;;;;;7.33;3.40;;;;;;;;;;5037189;28;20222;-48
2021/04/07 09:07:00;;;;;;;4.40;1.90;;;;;;;;;;5018038;28;20218;-48
2021/04/07 09:09:27;;;;;;;6.13;3.50;;;;;;;;;;5013730;28;20606;-47
2021/04/07 09:11:56;;;;;;;5.70;2.87;;;;;;;;;;5022825;28;20234;-50
2021/04/07 09:14:21;;;;;;;6.83;3.53;;;;;;;;;;5019646;28;20226;-49
2021/04/07 09:16:47;;;;;;;7.63;3.90;;;;;;;;;;5014991;28;20214;-48
2021/04/07 09:19:26;;;;;;;7.03;4.60;;;;;;;;;;5022599;28;20593;-49
2021/04/07 09:22:04;;;;;;;7.20;3.87;;;;;;;;;;5025530;28;20255;-48
2021/04/07 09:24:37;;;;;;;7.20;4.47;;;;;;;;;;5026071;28;20204;-49
2021/04/07 09:27:03;;;;;;;5.73;4.13;;;;;;;;;;5025252;28;20206;-54
2021/04/07 09:29:28;;;;;;;8.07;4.50;;;;;;;;;;5025848;28;20871;-47
2021/04/07 09:31:54;;;;;;;6.43;4.27;;;;;;;;;;5025174;28;20203;-47
2021/04/07 09:34:20;;;;;;;7.93;4.63;;;;;;;;;;5022566;28;20270;-49
2021/04/07 09:36:48;;;;;;;9.97;5.77;;;;;;;;;;5023402;28;20204;-47
2021/04/07 09:39:23;;;;;;;7.43;4.77;;;;;;;;;;5023921;28;20195;-47
2021/04/07 09:41:48;;;;;;;7.57;4.87;;;;;;;;;;5022111;28;20341;-48
2021/04/07 09:44:16;;;;;;;7.47;4.83;;;;;;;;;;5027819;28;20684;-48
2021/04/07 09:46:48;;;;;;;6.50;5.00;;;;;;;;;;5024086;28;20214;-49
2021/04/07 09:49:13;;;;;;;9.57;5.13;;;;;;;;;;5022090;28;20282;-48
2021/04/07 09:51:48;;;;;;;12.33;5.43;;;;;;;;;;5023418;28;20628;-50
2021/04/07 09:54:16;;;;;;;5.87;4.63;;;;;;;;;;5026052;28;20182;-48
2021/04/07 09:56:57;;;;;;;9.63;4.90;;;;;;;;;;5025701;28;20213;-48
2021/04/07 09:59:35;;;;;;;9.70;6.67;;;;;;;;;;5019838;28;20860;-49
2021/04/07 10:02:09;;;;;;;12.90;8.13;;;;;;;;;;5015447;28;20229;-49
2021/04/07 10:04:37;;;;;;;7.30;5.77;;;;;;;;;;5021948;28;20194;-49
2021/04/07 10:07:09;;;;;;;6.43;5.80;;;;;;;;;;5022772;28;20210;-48
2021/04/07 10:09:34;;;;;;;9.03;5.47;;;;;;;;;;5020712;28;20227;-49
2021/04/07 10:12:00;;;;;;;9.40;6.33;;;;;;;;;;5021285;28;20292;-48
2021/04/07 10:14:26;;;;;;;6.60;4.83;;;;;;;;;;5021884;28;20201;-47
2021/04/07 10:16:51;;;;;;;9.30;5.83;;;;;;;;;;5020271;28;20182;-49
2021/04/07 10:19:17;;;;;;;12.03;6.90;;;;;;;;;;5022215;28;20659;-50
2021/04/07 10:21:45;;;;;;;10.20;6.33;;;;;;;;;;5021148;28;20234;-49
2021/04/07 10:24:15;;;;;;;11.03;5.90;;;;;;;;;;5023146;28;20198;-48
2021/04/07 10:26:44;;;;;;;6.70;4.07;;;;;;;;;;5024720;28;20230;-50
2021/04/07 10:29:23;;;;;;;7.63;4.83;;;;;;;;;;5024165;28;20214;-49
2021/04/07 10:31:58;;;;;;;10.13;5.47;;;;;;;;;;5036860;28;20297;-50
2021/04/07 10:34:34;;;;;;;10.77;7.60;;;;;;;;;;5023744;28;20221;-48
2021/04/07 10:37:03;;;;;;;7.93;3.90;;;;;;;;;;5023239;28;20221;-48
2021/04/07 10:39:42;;;;;;;7.83;5.17;;;;;;;;;;5020030;28;20943;-47
2021/04/07 10:42:18;;;;;;;9.23;5.20;;;;;;;;;;5023219;28;20582;-49
2021/04/07 10:44:55;;;;;;;11.13;6.43;;;;;;;;;;5022183;28;20198;-49
2021/04/07 10:47:22;;;;;;;9.50;7.80;;;;;;;;;;5013751;28;20206;-48
2021/04/07 10:49:55;;;;;;;9.10;6.97;;;;;;;;;;5022347;28;20198;-50
2021/04/07 10:52:37;;;;;;;9.18;7.20;;;;;;;;;;5021649;28;20432;-54
2021/04/07 10:55:07;;;;;;;10.93;5.17;;;;;;;;;;5021941;28;20293;-49
2021/04/07 10:57:53;;;;;;;11.63;6.83;;;;;;;;;;5022133;28;20186;-49
2021/04/07 11:00:31;;;;;;;7.00;5.77;;;;;;;;;;5013538;28;20213;-49
2021/04/07 11:02:57;;;;;;;9.07;6.30;;;;;;;;;;5019082;28;20214;-48
2021/04/07 11:05:37;;;;;;;10.40;6.40;;;;;;;;;;5013539;28;20187;-49
2021/04/07 11:08:05;;;;;;;7.87;5.37;;;;;;;;;;5012286;28;20213;-50
2021/04/07 11:10:45;;;;;;;8.97;6.20;;;;;;;;;;5019258;28;20253;-50
2021/04/07 11:13:13;;;;;;;10.60;5.87;;;;;;;;;;5009568;28;20193;-48
2021/04/07 11:15:39;;;;;;;7.70;5.97;;;;;;;;;;5012833;28;20194;-48
2021/04/07 11:18:06;;;;;;;11.47;6.77;;;;;;;;;;5018978;28;20191;-49
2021/04/07 11:20:32;;;;;;;4.13;3.30;;;;;;;;;;5019225;28;20213;-48
2021/04/07 11:22:58;;;;;;;9.70;6.20;;;;;;;;;;5019385;28;20475;-48
2021/04/07 11:25:24;;;;;;;9.97;7.33;;;;;;;;;;5020285;28;20445;-49
2021/04/07 11:27:52;;;;;;;9.33;7.43;;;;;;;;;;5022676;28;20199;-48
2021/04/07 11:30:19;;;;;;;10.00;6.17;;;;;;;;;;5020649;28;20190;-49
2021/04/07 11:32:51;;;;;;;7.27;5.83;;;;;;;;;;5021238;28;20659;-49
2021/04/07 11:40:31;;;;;;;8.97;6.47;;;;;;;;;;5022177;28;20285;-47
2021/04/07 11:43:05;;;;;;;7.20;5.30;;;;;;;;;;5019742;28;20210;-50
2021/04/07 11:45:31;;;;;;;7.73;5.60;;;;;;;;;;5011580;28;20214;-47
2021/04/07 11:47:56;;;;;;;9.13;6.73;;;;;;;;;;5021135;28;20310;-50
2021/04/07 11:50:21;;;;;;;7.17;6.07;;;;;;;;;;5035657;28;20206;-49
2021/04/07 11:52:47;;;;;;;6.80;5.63;;;;;;;;;;5021284;28;20237;-48
2021/04/07 11:55:13;;;;;;;7.13;5.43;;;;;;;;;;5020950;28;20190;-49
2021/04/07 11:57:38;;;;;;;8.33;5.90;;;;;;;;;;5020489;28;20206;-48
2021/04/07 12:00:09;;;;;;;7.87;5.43;;;;;;;;;;5023518;28;20191;-50
2021/04/07 12:02:39;;;;;;;6.23;5.13;;;;;;;;;;5018847;28;20690;-50
2021/04/07 12:05:04;;;;;;;5.27;4.77;;;;;;;;;;5020460;28;20203;-51
2021/04/07 12:07:30;;;;;;;5.60;5.00;;;;;;;;;;5021896;28;20203;-49
2021/04/07 12:09:55;;;;;;;5.13;4.50;;;;;;;;;;5020221;28;20201;-49
2021/04/07 12:12:20;;;;;;;3.53;3.23;;;;;;;;;;5021705;28;20256;-48
2021/04/07 12:14:46;;;;;;;4.83;4.33;;;;;;;;;;5020515;28;20203;-47
2021/04/07 12:17:11;;;;;;;4.67;4.03;;;;;;;;;;5018035;28;20197;-48
2021/04/07 12:19:36;;;;;;;5.13;4.40;;;;;;;;;;5021713;28;20343;-48
2021/04/07 12:22:02;;;;;;;4.57;4.17;;;;;;;;;;5023150;28;20638;-47
2021/04/07 12:24:29;;;;;;;6.20;4.70;;;;;;;;;;5017636;28;20214;-50
2021/04/07 12:26:55;;;;;;;5.03;4.43;;;;;;;;;;5018923;28;20225;-48
2021/04/07 12:29:20;;;;;;;4.43;3.97;;;;;;;;;;5022595;28;20191;-48
2021/04/07 12:31:45;;;;;;;4.90;3.93;;;;;;;;;;5023605;28;20207;-48
2021/04/07 12:34:11;;;;;;;4.83;3.80;;;;;;;;;;5018871;28;20286;-53
2021/04/07 12:36:37;;;;;;;4.87;4.33;;;;;;;;;;5021684;28;20191;-49
2021/04/07 12:39:03;;;;;;;5.00;4.50;;;;;;;;;;5020950;28;20187;-49
2021/04/07 12:41:33;;;;;;;4.43;4.03;;;;;;;;;;5017671;28;20207;-48
2021/04/07 12:43:59;;;;;;;10.77;7.53;;;;;;;;;;5015884;28;20186;-48
2021/04/07 12:46:25;;;;;;;5.30;4.37;;;;;;;;;;5022565;28;20721;-49
2021/04/07 12:48:53;;;;;;;5.47;4.97;;;;;;;;;;5022527;28;20206;-47
2021/04/07 12:51:20;;;;;;;5.20;4.70;;;;;;;;;;5021826;28;20289;-47
2021/04/07 12:53:46;;;;;;;7.07;4.87;;;;;;;;;;5020896;28;20187;-49
2021/04/07 12:56:15;;;;;;;4.87;4.37;;;;;;;;;;5021246;28;20887;-48
2021/04/07 12:58:42;;;;;;;4.90;4.33;;;;;;;;;;5018398;28;20667;-48
2021/04/07 13:01:09;;;;;;;3.50;2.77;;;;;;;;;;5021539;28;20294;-52
2021/04/07 13:03:35;;;;;;;5.10;4.60;;;;;;;;;;5019977;28;20205;-48
2021/04/07 13:06:01;;;;;;;4.30;3.90;;;;;;;;;;5021815;28;20191;-48
2021/04/07 13:08:26;;;;;;;7.13;4.57;;;;;;;;;;5015906;28;20237;-51
2021/04/07 13:10:51;;;;;;;5.00;4.27;;;;;;;;;;5024277;28;20206;-48
2021/04/07 13:13:17;;;;;;;6.07;3.93;;;;;;;;;;5015882;28;20567;-49
2021/04/07 13:15:42;;;;;;;4.47;4.07;;;;;;;;;;5021701;28;20191;-48
2021/04/07 13:18:07;;;;;;;4.53;3.57;;;;;;;;;;5010134;28;20678;-48
2021/04/07 13:20:34;;;;;;;5.90;3.70;;;;;;;;;;5024105;28;20187;-48
2021/04/07 13:22:59;;;;;;;4.77;3.90;;;;;;;;;;5017830;28;20214;-48
2021/04/07 13:25:25;;;;;;;6.67;4.17;;;;;;;;;;5012531;28;20183;-47
2021/04/07 13:27:50;;;;;;;4.87;4.20;;;;;;;;;;5018161;28;20206;-50
2021/04/07 13:30:16;;;;;;;3.90;3.60;;;;;;;;;;5023186;28;20239;-49
2021/04/07 13:32:49;;;;;;;4.30;3.90;;;;;;;;;;5017984;28;20214;-49
2021/04/07 13:35:29;;;;;;;4.90;4.40;;;;;;;;;;5018514;28;20195;-47
2021/04/07 13:38:00;;;;;;;4.33;3.57;;;;;;;;;;5016762;28;20629;-47
2021/04/07 13:40:35;;;;;;;3.63;3.33;;;;;;;;;;5036695;28;20201;-48
2021/04/07 13:43:00;;;;;;;8.97;5.20;;;;;;;;;;5021180;28;20221;-50
2021/04/07 13:45:28;;;;;;;5.90;5.30;;;;;;;;;;5019827;28;20190;-47
2021/04/07 13:47:57;;;;;;;5.73;4.60;;;;;;;;;;5019275;28;20245;-49
2021/04/07 13:50:23;;;;;;;4.50;4.10;;;;;;;;;;5021005;28;20215;-48
2021/04/07 13:52:49;;;;;;;3.97;3.57;;;;;;;;;;5023296;28;20580;-48
2021/04/07 13:55:23;;;;;;;4.20;3.80;;;;;;;;;;5020603;28;20213;-49
2021/04/07 13:57:49;;;;;;;5.87;5.07;;;;;;;;;;5016672;28;20226;-50
2021/04/07 14:00:16;;;;;;;5.07;4.57;;;;;;;;;;5020490;28;20577;-50
2021/04/07 14:02:41;;;;;;;6.33;4.43;;;;;;;;;;5013386;28;20230;-48
2021/04/07 14:05:07;;;;;;;5.20;4.03;;;;;;;;;;5015709;28;20194;-48
2021/04/07 14:07:33;;;;;;;5.37;4.70;;;;;;;;;;5035299;28;20206;-48
2021/04/07 14:10:00;;;;;;;5.07;4.57;;;;;;;;;;5023210;28;20918;-49
2021/04/07 14:12:39;;;;;;;6.60;4.77;;;;;;;;;;5025444;28;20234;-48
2021/04/07 14:15:05;;;;;;;5.63;4.77;;;;;;;;;;5035153;28;20565;-48
2021/04/07 14:17:30;;;;;;;4.80;4.30;;;;;;;;;;5023564;28;20187;-49
2021/04/07 14:19:56;;;;;;;4.77;4.37;;;;;;;;;;5020485;28;20209;-49
2021/04/07 14:22:21;;;;;;;5.93;5.27;;;;;;;;;;5025185;28;20570;-50
2021/04/07 14:24:46;;;;;;;4.57;4.13;;;;;;;;;;5023238;28;20191;-48
2021/04/07 14:27:14;;;;;;;6.60;5.20;;;;;;;;;;5020352;28;20218;-48
2021/04/07 14:29:41;;;;;;;7.47;5.77;;;;;;;;;;5020649;28;20187;-49
2021/04/07 14:32:07;;;;;;;6.23;5.43;;;;;;;;;;5023660;28;20352;-48
2021/04/07 14:34:32;;;;;;;5.00;4.60;;;;;;;;;;5022898;28;20273;-48
2021/04/07 14:36:58;;;;;;;4.40;3.83;;;;;;;;;;5020370;28;20201;-49
2021/04/07 14:39:23;;;;;;;5.90;5.03;;;;;;;;;;5021843;28;20809;-47
2021/04/07 14:41:48;;;;;;;3.73;3.33;;;;;;;;;;5010866;28;20210;-47
2021/04/07 14:44:14;;;;;;;8.00;4.83;;;;;;;;;;5019181;28;20191;-50
2021/04/07 14:46:39;;;;;;;6.57;4.80;;;;;;;;;;5015712;28;20959;-49
2021/04/07 14:49:04;;;;;;;5.77;4.73;;;;;;;;;;5019354;28;20190;-48
2021/04/07 14:51:32;;;;;;;5.70;5.03;;;;;;;;;;5024930;28;20710;-49